Terminal Aerodrome Forecast
Issued by NWS

Current Version | Previous Version | Graphics & Text | Print | Product List | Glossary On
Versions: 1 2 3 4 5 6 7 8 9 10 11 12 13 14 15 16 17 18 19 20 21 22 23 24 25 26 27 28 29 30
000
FTUS41 KRNK 302322
TAFLWB
TAF
KLWB 302322Z 0100/0124 34007KT P6SM VCSH OVC050
     FM010100 31004KT 5SM -SHRA BR OVC025
     FM010400 34003KT 4SM -SHRA BR OVC009
     FM011300 01006KT P6SM OVC020
     FM011900 31005KT P6SM OVC050=

USA.gov is the U.S. government's official web portal to all federal, state and local government web resources and services.